Time;durP1;ratioP1;P1;durP2;ratioP2;P2;SDS_P1;SDS_P2;PMS_P1;PMS_P2;Temp;Humidity;BMP_temperature;BMP_pressure;BME280_temperature;BME280_humidity;BME280_pressure;Samples;Min_cycle;Max_cycle;Signal;HPM_P1;HPM_P2
2023/01/23 00:00:56;;;;;;;9.30;2.50;;;;;;;3.66;100.00;103244.13;5064918;28;20055;-75
2023/01/23 00:03:22;;;;;;;5.60;2.28;;;;;;;3.63;100.00;103246.91;5051106;28;20025;-75
2023/01/23 00:06:05;;;;;;;7.00;2.88;;;;;;;3.73;100.00;103253.69;5047535;28;20025;-75
2023/01/23 00:08:30;;;;;;;5.55;1.90;;;;;;;3.88;100.00;103258.50;5061365;28;20103;-75
2023/01/23 00:10:56;;;;;;;8.68;2.90;;;;;;;3.96;100.00;103251.03;5050550;28;20111;-75
2023/01/23 00:13:22;;;;;;;7.72;2.55;;;;;;;3.93;100.00;103256.53;5052165;28;20021;-75
2023/01/23 00:15:48;;;;;;;5.55;2.47;;;;;;;3.87;100.00;103256.75;5045208;28;20091;-75
2023/01/23 00:18:14;;;;;;;3.97;2.47;;;;;;;4.02;100.00;103258.84;5041567;28;20033;-75
2023/01/23 00:20:40;;;;;;;9.27;2.80;;;;;;;3.79;100.00;103259.72;5056711;28;20104;-75
2023/01/23 00:23:07;;;;;;;9.57;2.85;;;;;;;3.92;100.00;103260.13;5052699;28;20107;-75
2023/01/23 00:25:33;;;;;;;5.32;2.10;;;;;;;3.68;100.00;103266.38;5045205;28;20477;-75
2023/01/23 00:27:58;;;;;;;6.40;2.42;;;;;;;3.85;100.00;103263.97;5064587;28;20017;-75
2023/01/23 00:30:24;;;;;;;6.28;2.60;;;;;;;3.77;100.00;103260.66;5059114;28;20019;-76
2023/01/23 00:32:49;;;;;;;8.27;2.78;;;;;;;3.95;100.00;103259.13;5035819;28;20424;-75
2023/01/23 00:35:14;;;;;;;7.18;2.40;;;;;;;4.06;100.00;103265.84;5044815;28;20035;-75
2023/01/23 00:37:40;;;;;;;7.53;2.90;;;;;;;3.90;100.00;103256.63;5054116;28;20032;-75
2023/01/23 00:40:06;;;;;;;10.75;3.75;;;;;;;4.11;100.00;103267.47;5037152;28;20017;-75
2023/01/23 00:42:32;;;;;;;6.20;2.65;;;;;;;3.94;100.00;103263.63;5041154;28;20063;-75
2023/01/23 00:44:57;;;;;;;8.15;2.83;;;;;;;4.05;100.00;103272.16;5040115;28;20056;-75
2023/01/23 00:47:22;;;;;;;6.25;2.30;;;;;;;4.15;100.00;103277.16;5045282;28;20028;-75
2023/01/23 00:49:48;;;;;;;9.23;3.05;;;;;;;3.96;100.00;103276.97;5040354;28;20021;-75
2023/01/23 00:52:13;;;;;;;7.38;2.63;;;;;;;4.08;100.00;103274.69;5050344;28;20025;-75
2023/01/23 00:54:38;;;;;;;6.65;2.33;;;;;;;4.09;100.00;103275.56;5063432;28;20075;-75
2023/01/23 00:57:04;;;;;;;12.95;2.70;;;;;;;3.91;100.00;103269.13;5070050;28;20561;-75
2023/01/23 00:59:29;;;;;;;9.55;2.53;;;;;;;3.81;100.00;103267.69;5045055;28;20082;-75
2023/01/23 01:01:55;;;;;;;6.60;2.13;;;;;;;3.82;100.00;103274.78;5070626;28;20013;-75
2023/01/23 01:04:20;;;;;;;14.18;2.80;;;;;;;3.77;100.00;103271.38;5064954;28;20027;-75
2023/01/23 01:06:46;;;;;;;8.68;2.03;;;;;;;3.98;100.00;103278.69;5064655;28;20106;-75
2023/01/23 01:09:11;;;;;;;12.23;2.92;;;;;;;4.11;100.00;103280.88;5070020;28;20012;-75
2023/01/23 01:11:37;;;;;;;8.38;1.98;;;;;;;3.97;100.00;103290.28;5049611;28;20031;-75
2023/01/23 01:14:03;;;;;;;7.70;2.53;;;;;;;4.03;100.00;103279.34;5054422;28;20130;-75
2023/01/23 01:16:29;;;;;;;10.57;2.95;;;;;;;3.89;100.00;103292.38;5044810;28;20025;-75
2023/01/23 01:18:54;;;;;;;5.22;2.05;;;;;;;3.87;100.00;103286.22;5055172;28;20082;-75
2023/01/23 01:21:20;;;;;;;7.32;3.35;;;;;;;3.85;100.00;103285.41;5051684;28;20043;-76
2023/01/23 01:23:45;;;;;;;8.73;2.63;;;;;;;3.89;100.00;103292.38;5048009;28;20102;-75
2023/01/23 01:26:11;;;;;;;8.38;2.28;;;;;;;3.75;100.00;103289.34;5056975;28;20032;-76
2023/01/23 01:28:38;;;;;;;8.73;2.83;;;;;;;3.72;100.00;103286.78;5058911;28;20406;-76
2023/01/23 01:31:12;;;;;;;9.88;3.20;;;;;;;3.52;100.00;103288.34;5047416;28;20036;-76
2023/01/23 01:33:39;;;;;;;8.10;2.70;;;;;;;3.47;100.00;103290.31;5051983;28;20029;-76
2023/01/23 01:36:13;;;;;;;6.55;2.70;;;;;;;3.48;100.00;103292.06;5051595;28;20020;-76
2023/01/23 01:38:38;;;;;;;7.97;3.10;;;;;;;3.38;100.00;103295.97;5035647;28;20032;-76
2023/01/23 01:41:05;;;;;;;15.52;2.38;;;;;;;3.38;100.00;103301.31;5047106;28;20013;-75
2023/01/23 01:43:31;;;;;;;8.40;2.42;;;;;;;3.20;100.00;103307.31;5034261;28;20032;-75
2023/01/23 01:46:07;;;;;;;5.55;3.00;;;;;;;3.34;100.00;103310.41;5048773;28;20028;-76
2023/01/23 01:48:39;;;;;;;5.97;2.60;;;;;;;3.46;100.00;103304.63;5042121;28;20029;-76
2023/01/23 01:51:11;;;;;;;9.93;2.42;;;;;;;3.35;100.00;103301.44;5052299;28;20021;-76
2023/01/23 01:53:38;;;;;;;7.57;2.53;;;;;;;3.28;100.00;103305.25;5054299;28;20024;-75
2023/01/23 01:56:06;;;;;;;7.30;2.35;;;;;;;3.39;100.00;103311.13;5057452;28;20033;-76
2023/01/23 01:58:32;;;;;;;7.47;2.33;;;;;;;3.22;100.00;103302.78;5050275;28;20032;-76
2023/01/23 02:00:57;;;;;;;5.00;2.42;;;;;;;3.32;100.00;103312.25;5043436;28;20025;-75
2023/01/23 02:03:23;;;;;;;8.73;2.63;;;;;;;3.33;100.00;103313.16;5049454;28;20043;-75
2023/01/23 02:05:49;;;;;;;6.38;3.05;;;;;;;3.30;100.00;103319.47;5044590;28;20075;-75
2023/01/23 02:08:40;;;;;;;6.28;2.88;;;;;;;3.17;100.00;103320.78;5050535;28;20028;-75
2023/01/23 02:11:06;;;;;;;6.03;2.63;;;;;;;3.14;100.00;103318.22;5046615;28;20020;-75
2023/01/23 02:13:38;;;;;;;7.57;2.95;;;;;;;3.14;100.00;103329.81;5051454;28;20547;-76
2023/01/23 02:16:08;;;;;;;17.08;3.75;;;;;;;3.16;100.00;103332.44;5069150;28;20058;-76
2023/01/23 02:18:35;;;;;;;12.23;3.33;;;;;;;3.20;100.00;103328.75;5051223;28;20033;-75
2023/01/23 02:21:06;;;;;;;11.60;3.97;;;;;;;3.22;100.00;103326.88;5069500;28;20059;-75
2023/01/23 02:24:09;;;;;;;11.57;4.55;;;;;;;3.15;100.00;103330.69;5058831;28;20047;-75
2023/01/23 02:26:39;;;;;;;10.68;4.55;;;;;;;3.13;100.00;103332.50;5041651;28;20029;-76
2023/01/23 02:29:05;;;;;;;11.93;4.47;;;;;;;3.05;100.00;103323.88;5047628;28;20024;-75
2023/01/23 02:31:31;;;;;;;12.00;5.00;;;;;;;3.22;100.00;103324.19;5047885;28;20078;-75
2023/01/23 02:33:58;;;;;;;14.13;5.05;;;;;;;3.27;100.00;103324.94;5041042;28;20024;-75
2023/01/23 02:36:27;;;;;;;10.75;5.13;;;;;;;3.43;100.00;103325.28;5050554;28;20051;-75
2023/01/23 02:39:06;;;;;;;13.52;5.32;;;;;;;3.30;100.00;103324.81;5051423;28;20024;-75
2023/01/23 02:41:35;;;;;;;9.80;3.85;;;;;;;3.37;100.00;103320.13;5042634;28;20029;-75
2023/01/23 02:44:08;;;;;;;12.25;5.18;;;;;;;3.49;100.00;103328.63;5044967;28;20024;-76
2023/01/23 02:46:33;;;;;;;9.32;4.32;;;;;;;3.54;100.00;103324.00;5049251;28;20020;-75
2023/01/23 02:48:59;;;;;;;6.97;4.75;;;;;;;3.61;100.00;103323.78;5036622;28;20021;-74
2023/01/23 02:51:24;;;;;;;13.40;4.68;;;;;;;3.59;100.00;103314.94;5049404;28;20420;-76
2023/01/23 02:53:50;;;;;;;11.23;5.05;;;;;;;3.50;100.00;103316.97;5070519;28;20043;-74
2023/01/23 02:56:16;;;;;;;8.30;4.53;;;;;;;3.47;100.00;103311.75;5064500;28;20025;-74
2023/01/23 03:01:26;;;;;;;16.65;5.75;;;;;;;3.37;100.00;103307.63;5064673;28;20111;-74
2023/01/23 03:03:54;;;;;;;14.77;6.05;;;;;;;3.25;100.00;103316.06;5055123;28;20112;-75
2023/01/23 03:06:20;;;;;;;14.85;6.10;;;;;;;3.19;100.00;103316.25;5051278;28;20032;-74
2023/01/23 03:08:46;;;;;;;11.45;6.25;;;;;;;3.06;100.00;103314.91;5045328;28;20501;-74
2023/01/23 03:11:13;;;;;;;13.65;5.95;;;;;;;3.01;100.00;103314.19;5054382;28;20028;-75
2023/01/23 03:13:39;;;;;;;14.95;6.28;;;;;;;3.26;100.00;103304.44;5054980;28;20123;-74
2023/01/23 03:16:05;;;;;;;11.95;6.53;;;;;;;3.26;100.00;103301.75;5048411;28;20116;-75
2023/01/23 03:18:32;;;;;;;14.48;5.35;;;;;;;3.16;100.00;103300.31;5060275;28;20035;-74
2023/01/23 03:21:05;;;;;;;22.35;7.10;;;;;;;3.32;100.00;103306.88;5054790;28;20031;-74
2023/01/23 03:23:30;;;;;;;15.55;6.55;;;;;;;3.41;100.00;103305.72;5046437;28;20032;-75
2023/01/23 03:25:59;;;;;;;20.23;7.88;;;;;;;3.34;100.00;103321.13;5050401;28;20363;-75
2023/01/23 03:31:10;;;;;;;17.60;7.07;;;;;;;3.15;100.00;103319.97;5067989;28;20028;-75
2023/01/23 03:33:38;;;;;;;14.32;7.28;;;;;;;3.02;100.00;103318.63;5085665;22;20040;-73
2023/01/23 03:36:07;;;;;;;12.90;6.88;;;;;;;3.01;100.00;103323.09;5094677;28;20054;-72
2023/01/23 03:38:32;;;;;;;15.52;7.35;;;;;;;2.98;100.00;103321.38;5082287;28;20020;-73
2023/01/23 03:43:41;;;;;;;16.27;7.53;;;;;;;3.09;100.00;103331.75;5093018;28;20020;-73
2023/01/23 03:46:08;;;;;;;16.58;6.90;;;;;;;3.01;100.00;103332.94;5074937;28;20057;-73
2023/01/23 03:48:33;;;;;;;12.27;6.35;;;;;;;3.04;100.00;103332.81;5076734;28;20042;-73
2023/01/23 03:50:59;;;;;;;16.38;7.45;;;;;;;3.22;100.00;103342.94;5083377;28;20020;-73
2023/01/23 03:53:24;;;;;;;19.30;7.03;;;;;;;3.18;100.00;103341.28;5074796;28;20380;-72
2023/01/23 03:55:49;;;;;;;12.75;7.45;;;;;;;3.34;100.00;103347.91;5074597;28;20031;-73
2023/01/23 03:58:15;;;;;;;13.98;7.60;;;;;;;3.16;100.00;103348.50;5074595;28;20067;-72
2023/01/23 04:00:40;;;;;;;16.95;7.68;;;;;;;3.19;100.00;103353.72;5069554;28;20249;-73
2023/01/23 04:03:06;;;;;;;15.30;7.93;;;;;;;3.11;100.00;103345.09;5074398;28;20024;-72
2023/01/23 04:05:32;;;;;;;12.52;6.28;;;;;;;2.98;100.00;103340.13;5073641;28;20024;-73
2023/01/23 04:07:57;;;;;;;14.55;6.88;;;;;;;3.01;100.00;103343.66;5081223;28;20102;-72
2023/01/23 04:10:23;;;;;;;17.23;8.35;;;;;;;2.94;100.00;103348.31;5066461;28;20032;-73
2023/01/23 04:12:48;;;;;;;14.98;7.13;;;;;;;2.93;100.00;103344.75;5077533;28;20052;-74
2023/01/23 04:15:14;;;;;;;13.35;6.00;;;;;;;2.91;100.00;103349.25;5074149;28;20184;-73
2023/01/23 04:17:39;;;;;;;15.07;7.53;;;;;;;2.97;100.00;103353.56;5073544;28;20039;-72
2023/01/23 04:20:05;;;;;;;12.43;6.95;;;;;;;2.87;100.00;103347.63;5073755;28;20028;-73
2023/01/23 04:22:30;;;;;;;16.67;7.80;;;;;;;2.88;100.00;103354.72;5073845;28;20067;-72
2023/01/23 04:24:56;;;;;;;13.60;7.32;;;;;;;2.93;100.00;103352.78;5074300;28;20028;-73
2023/01/23 04:27:21;;;;;;;16.25;7.57;;;;;;;2.95;100.00;103353.59;5081748;28;20114;-73
2023/01/23 04:29:47;;;;;;;10.23;6.55;;;;;;;2.91;100.00;103365.31;5065015;28;20110;-73
2023/01/23 04:32:13;;;;;;;12.02;6.45;;;;;;;2.87;100.00;103361.00;5069120;28;20122;-71
2023/01/23 04:34:39;;;;;;;11.60;6.05;;;;;;;3.01;100.00;103365.06;5072346;28;20031;-73
2023/01/23 04:37:04;;;;;;;9.43;6.25;;;;;;;2.97;100.00;103370.47;5064934;28;20028;-72
2023/01/23 04:39:31;;;;;;;12.02;6.85;;;;;;;3.04;100.00;103375.66;5073051;28;20047;-73
2023/01/23 04:41:56;;;;;;;13.13;6.53;;;;;;;2.97;100.00;103370.47;5080853;28;20040;-73
2023/01/23 04:44:22;;;;;;;11.52;6.53;;;;;;;2.93;100.00;103368.84;5091703;28;20038;-73
2023/01/23 04:46:49;;;;;;;11.45;6.85;;;;;;;2.89;100.00;103377.88;5072979;28;20106;-72
2023/01/23 04:49:15;;;;;;;13.13;6.97;;;;;;;2.82;100.00;103370.97;5077357;28;20024;-73
2023/01/23 04:51:43;;;;;;;12.82;6.63;;;;;;;2.86;100.00;103369.94;5073211;28;20032;-73
2023/01/23 04:54:09;;;;;;;12.60;6.65;;;;;;;2.86;100.00;103369.94;5070005;28;20097;-73
2023/01/23 04:56:34;;;;;;;15.73;7.95;;;;;;;2.94;100.00;103370.59;5064910;28;20036;-73
2023/01/23 04:59:00;;;;;;;13.43;7.85;;;;;;;2.96;100.00;103374.09;5077249;28;20511;-73
2023/01/23 05:01:25;;;;;;;14.48;7.75;;;;;;;2.97;100.00;103367.81;5064231;28;20036;-72
2023/01/23 05:03:52;;;;;;;13.90;7.13;;;;;;;3.02;100.00;103380.19;5064813;28;20460;-73
2023/01/23 05:06:17;;;;;;;17.85;7.95;;;;;;;3.02;100.00;103382.88;5090511;28;20028;-73
2023/01/23 05:08:44;;;;;;;13.02;7.20;;;;;;;2.96;100.00;103382.13;5076655;28;20081;-73
2023/01/23 05:11:09;;;;;;;14.32;7.45;;;;;;;3.14;100.00;103385.16;5064878;28;20028;-73
2023/01/23 05:13:34;;;;;;;12.52;7.60;;;;;;;2.95;100.00;103388.41;5072674;28;20028;-72
2023/01/23 05:16:00;;;;;;;10.57;6.97;;;;;;;3.03;100.00;103384.59;5071453;28;20071;-72
2023/01/23 05:18:26;;;;;;;17.38;7.60;;;;;;;2.93;100.00;103389.34;5072380;28;20046;-73
2023/01/23 05:20:51;;;;;;;12.25;7.43;;;;;;;2.99;100.00;103395.38;5064175;28;20024;-73
2023/01/23 05:23:16;;;;;;;16.05;7.88;;;;;;;2.97;100.00;103397.25;5080558;28;20035;-73
2023/01/23 05:25:42;;;;;;;14.10;7.60;;;;;;;3.20;100.00;103401.03;5072190;28;20035;-73
2023/01/23 05:28:07;;;;;;;12.48;6.97;;;;;;;3.26;100.00;103392.81;5072567;28;20062;-73
2023/01/23 05:30:32;;;;;;;13.95;8.18;;;;;;;3.24;100.00;103400.84;5072100;28;20102;-73
2023/01/23 05:32:58;;;;;;;22.92;9.50;;;;;;;3.22;100.00;103396.50;5072088;28;20060;-73
2023/01/23 05:35:23;;;;;;;14.32;7.82;;;;;;;3.17;100.00;103404.66;5071805;28;20317;-72
2023/01/23 05:37:50;;;;;;;13.15;8.23;;;;;;;3.23;100.00;103408.94;5072584;28;20082;-73
2023/01/23 05:40:16;;;;;;;14.55;8.95;;;;;;;3.19;100.00;103418.00;5072599;28;20020;-72
2023/01/23 05:42:42;;;;;;;19.15;7.65;;;;;;;3.04;100.00;103413.13;5080345;28;20134;-73
2023/01/23 05:45:07;;;;;;;19.23;8.77;;;;;;;3.16;100.00;103412.75;5090417;28;20114;-73
2023/01/23 05:47:33;;;;;;;15.13;8.48;;;;;;;3.33;100.00;103415.78;5071291;28;20032;-73
2023/01/23 05:49:59;;;;;;;20.25;10.32;;;;;;;3.24;100.00;103416.91;5072368;28;20081;-73
2023/01/23 05:52:25;;;;;;;18.65;8.95;;;;;;;3.18;100.00;103421.59;5072458;28;20035;-73
2023/01/23 05:54:51;;;;;;;17.20;9.10;;;;;;;3.23;100.00;103425.00;5071962;28;20110;-73
2023/01/23 05:57:17;;;;;;;61.40;29.55;;;;;;;3.40;100.00;103433.41;5071903;28;20059;-73
2023/01/23 05:59:42;;;;;;;22.55;10.32;;;;;;;3.29;100.00;103424.81;5071939;28;20031;-73
2023/01/23 06:02:08;;;;;;;19.10;9.45;;;;;;;3.41;100.00;103426.25;5076377;28;20127;-73
2023/01/23 06:04:33;;;;;;;16.90;8.93;;;;;;;3.40;100.00;103428.03;5071882;28;20031;-73
2023/01/23 06:06:58;;;;;;;14.40;9.82;;;;;;;3.32;100.00;103430.06;5071361;28;20111;-73
2023/01/23 06:09:23;;;;;;;21.83;10.15;;;;;;;3.27;100.00;103432.03;5072260;28;20071;-73
2023/01/23 06:11:49;;;;;;;16.65;9.18;;;;;;;3.23;100.00;103430.38;5072000;28;20122;-73
2023/01/23 06:14:14;;;;;;;19.85;10.65;;;;;;;3.41;100.00;103428.91;5072048;28;20039;-74
2023/01/23 06:16:39;;;;;;;16.70;9.45;;;;;;;3.47;100.00;103429.59;5071943;28;20028;-72
2023/01/23 06:19:05;;;;;;;20.58;10.95;;;;;;;3.44;100.00;103428.81;5072179;28;20012;-73
2023/01/23 06:21:30;;;;;;;25.60;10.05;;;;;;;3.54;100.00;103431.16;5072572;28;20032;-72
2023/01/23 06:23:58;;;;;;;20.58;9.48;;;;;;;3.53;100.00;103434.75;5072615;28;20055;-72
2023/01/23 06:26:23;;;;;;;17.73;10.55;;;;;;;3.51;100.00;103447.31;5071965;28;20043;-73
2023/01/23 06:28:49;;;;;;;21.33;10.63;;;;;;;3.53;100.00;103450.81;5071552;28;20028;-73
2023/01/23 06:31:14;;;;;;;18.85;10.40;;;;;;;3.60;100.00;103450.63;5073056;28;20045;-73
2023/01/23 06:33:40;;;;;;;18.20;9.85;;;;;;;3.62;100.00;103448.78;5076076;28;20028;-72
2023/01/23 06:36:06;;;;;;;19.45;10.30;;;;;;;3.39;100.00;103447.72;5071457;28;20020;-73
2023/01/23 06:38:31;;;;;;;21.63;11.55;;;;;;;3.31;100.00;103455.09;5075607;28;20028;-72
2023/01/23 06:40:57;;;;;;;21.75;11.38;;;;;;;3.28;100.00;103447.16;5068582;28;20028;-74
2023/01/23 06:43:23;;;;;;;19.25;10.18;;;;;;;3.28;100.00;103444.50;5080927;28;20066;-74
2023/01/23 06:45:49;;;;;;;19.73;10.38;;;;;;;3.35;100.00;103446.06;5075949;28;20028;-74
2023/01/23 06:48:16;;;;;;;23.25;11.07;;;;;;;3.27;100.00;103448.09;5094595;28;20110;-73
2023/01/23 06:50:42;;;;;;;23.95;12.40;;;;;;;3.38;100.00;103450.41;5077930;28;20052;-72
2023/01/23 06:53:12;;;;;;;21.23;11.00;;;;;;;3.27;100.00;103458.81;5075929;28;20050;-72
2023/01/23 06:55:39;;;;;;;24.00;13.10;;;;;;;3.15;100.00;103453.84;5093388;28;20031;-72
2023/01/23 06:58:04;;;;;;;24.65;12.90;;;;;;;3.21;100.00;103459.00;5075657;28;20084;-72
2023/01/23 07:00:33;;;;;;;18.00;10.75;;;;;;;3.31;100.00;103464.94;5072394;28;20485;-71
2023/01/23 07:03:02;;;;;;;30.85;13.77;;;;;;;3.30;100.00;103474.78;5069794;28;20400;-72
2023/01/23 07:05:36;;;;;;;23.83;12.77;;;;;;;3.22;100.00;103472.34;5071042;28;20177;-73
2023/01/23 07:08:01;;;;;;;27.27;12.27;;;;;;;3.35;100.00;103478.19;5068340;28;20063;-73
2023/01/23 07:10:26;;;;;;;24.85;12.18;;;;;;;3.24;100.00;103485.66;5074458;28;20108;-72
2023/01/23 07:12:52;;;;;;;21.80;13.43;;;;;;;3.17;100.00;103474.28;5073921;28;21027;-72
2023/01/23 07:15:17;;;;;;;26.98;13.38;;;;;;;3.10;100.00;103487.88;5074496;28;20059;-73
2023/01/23 07:17:42;;;;;;;27.70;13.88;;;;;;;3.16;100.00;103493.06;5074346;28;20106;-73
2023/01/23 07:20:09;;;;;;;27.83;13.90;;;;;;;3.20;100.00;103478.66;5078662;28;20412;-74
2023/01/23 07:22:34;;;;;;;24.58;14.13;;;;;;;3.40;100.00;103484.28;5074072;28;20036;-74
2023/01/23 07:24:59;;;;;;;26.17;12.60;;;;;;;3.39;100.00;103482.53;5074614;28;20027;-70
2023/01/23 07:27:25;;;;;;;31.25;13.15;;;;;;;3.27;100.00;103485.59;5074925;28;20028;-70
2023/01/23 07:29:50;;;;;;;23.67;12.88;;;;;;;3.29;100.00;103483.72;5074571;28;20027;-70
2023/01/23 07:32:16;;;;;;;24.35;12.70;;;;;;;3.37;100.00;103491.53;5074660;28;20032;-72
2023/01/23 07:34:41;;;;;;;21.85;13.23;;;;;;;3.47;100.00;103496.56;5073037;28;20019;-71
2023/01/23 07:37:06;;;;;;;22.25;13.30;;;;;;;3.39;100.00;103495.94;5074659;28;20077;-71
2023/01/23 07:39:31;;;;;;;21.85;11.57;;;;;;;3.44;100.00;103493.97;5073137;28;20016;-71
2023/01/23 07:41:57;;;;;;;31.67;14.05;;;;;;;3.40;100.00;103497.69;5092558;28;20051;-70
2023/01/23 07:44:22;;;;;;;26.60;13.35;;;;;;;3.46;100.00;103496.63;5074152;28;20111;-70
2023/01/23 07:46:48;;;;;;;29.17;13.32;;;;;;;3.38;100.00;103499.50;5074788;28;20031;-71
2023/01/23 07:49:14;;;;;;;27.27;14.60;;;;;;;3.35;100.00;103504.97;5074735;28;20112;-72
2023/01/23 07:51:40;;;;;;;19.75;11.15;;;;;;;3.49;100.00;103502.75;5074710;28;20031;-71
2023/01/23 07:54:06;;;;;;;25.88;14.07;;;;;;;3.44;100.00;103504.66;5093114;28;20020;-68
2023/01/23 07:56:32;;;;;;;24.95;13.40;;;;;;;3.35;100.00;103521.03;5092308;28;20046;-69
2023/01/23 07:58:58;;;;;;;23.95;13.95;;;;;;;3.33;100.00;103517.53;5073874;28;20506;-71
2023/01/23 08:01:24;;;;;;;21.17;12.13;;;;;;;3.36;100.00;103522.78;5056216;28;20036;-69
2023/01/23 08:03:49;;;;;;;24.25;12.50;;;;;;;3.41;100.00;103526.22;5068815;28;20032;-71
2023/01/23 08:06:14;;;;;;;18.90;11.52;;;;;;;3.47;100.00;103520.66;5059341;28;20412;-68
2023/01/23 08:08:40;;;;;;;25.83;13.05;;;;;;;3.42;100.00;103527.97;5060780;28;20119;-71
2023/01/23 08:11:10;;;;;;;23.08;13.10;;;;;;;3.43;100.00;103532.38;5064335;28;20028;-71
2023/01/23 08:13:36;;;;;;;20.02;11.38;;;;;;;3.47;100.00;103526.03;5067690;28;20089;-69
2023/01/23 08:16:02;;;;;;;21.98;12.05;;;;;;;3.37;100.00;103529.88;5063861;28;20024;-71
2023/01/23 08:18:29;;;;;;;22.63;11.15;;;;;;;3.32;100.00;103531.81;5067675;28;20031;-71
2023/01/23 08:20:56;;;;;;;23.55;11.98;;;;;;;3.62;100.00;103529.16;5068017;28;20058;-71
2023/01/23 08:23:27;;;;;;;24.20;13.18;;;;;;;3.58;100.00;103532.84;5067424;28;20503;-71
2023/01/23 08:25:53;;;;;;;28.40;12.48;;;;;;;3.44;100.00;103541.28;5067048;28;20036;-70
2023/01/23 08:28:19;;;;;;;26.20;12.52;;;;;;;3.64;100.00;103532.66;5066606;28;20408;-71
2023/01/23 08:30:44;;;;;;;23.48;12.55;;;;;;;3.79;100.00;103540.22;5065944;28;20034;-71
2023/01/23 08:33:10;;;;;;;18.67;10.50;;;;;;;3.74;100.00;103540.34;5068198;28;20027;-69
2023/01/23 08:35:36;;;;;;;26.80;12.50;;;;;;;3.87;100.00;103546.22;5063050;28;20028;-72
2023/01/23 08:38:02;;;;;;;22.80;13.15;;;;;;;3.75;100.00;103551.94;5068161;28;20055;-71
2023/01/23 08:40:28;;;;;;;20.70;12.18;;;;;;;3.68;100.00;103555.75;5067475;28;20079;-72
2023/01/23 08:42:53;;;;;;;24.05;12.82;;;;;;;3.54;100.00;103565.09;5071721;28;20449;-72
2023/01/23 08:45:19;;;;;;;29.27;13.00;;;;;;;3.59;100.00;103569.44;5053823;28;20081;-69
2023/01/23 08:47:45;;;;;;;20.35;11.45;;;;;;;3.70;100.00;103564.59;5066652;28;20028;-68
2023/01/23 08:50:10;;;;;;;20.27;11.23;;;;;;;3.49;100.00;103560.78;5066077;28;20034;-68
2023/01/23 08:52:36;;;;;;;22.83;12.07;;;;;;;3.53;100.00;103562.47;5064429;28;20026;-71
2023/01/23 08:55:01;;;;;;;26.27;12.38;;;;;;;3.67;100.00;103572.75;5054819;28;20021;-68
2023/01/23 08:57:27;;;;;;;24.27;11.93;;;;;;;3.67;100.00;103575.44;5068483;28;20145;-71
2023/01/23 08:59:52;;;;;;;28.55;12.30;;;;;;;3.69;100.00;103562.84;5065416;28;20066;-72
2023/01/23 09:02:17;;;;;;;20.20;11.68;;;;;;;3.68;100.00;103577.19;5067682;28;20024;-69
2023/01/23 09:04:43;;;;;;;25.42;12.40;;;;;;;3.66;100.00;103579.03;5067740;28;20024;-70
2023/01/23 09:07:08;;;;;;;27.92;12.45;;;;;;;3.81;100.00;103575.88;5068418;28;20020;-70
2023/01/23 09:09:33;;;;;;;21.67;11.02;;;;;;;3.84;100.00;103578.44;5069283;28;20036;-71
2023/01/23 09:11:59;;;;;;;29.20;11.23;;;;;;;3.85;100.00;103580.22;5066001;28;20081;-69
2023/01/23 09:14:24;;;;;;;23.40;12.35;;;;;;;3.90;100.00;103583.63;5085720;28;20097;-68
2023/01/23 09:16:50;;;;;;;25.23;11.40;;;;;;;3.82;100.00;103585.66;5067247;28;20076;-68
2023/01/23 09:19:16;;;;;;;22.23;11.10;;;;;;;3.74;100.00;103582.34;5068483;28;20012;-71
2023/01/23 09:21:41;;;;;;;22.40;11.75;;;;;;;3.64;100.00;103580.88;5059142;28;20036;-71
2023/01/23 09:24:07;;;;;;;26.05;10.25;;;;;;;3.72;100.00;103584.22;5086349;28;20061;-70
2023/01/23 09:26:32;;;;;;;19.95;9.77;;;;;;;3.87;100.00;103578.38;5066689;28;20027;-73
2023/01/23 09:28:58;;;;;;;24.60;10.93;;;;;;;3.91;100.00;103577.34;5066724;28;20027;-69
2023/01/23 09:31:23;;;;;;;24.20;11.52;;;;;;;3.99;100.00;103577.97;5067946;28;20031;-69
2023/01/23 09:33:50;;;;;;;25.90;11.85;;;;;;;3.89;100.00;103583.69;5067422;28;20039;-70
2023/01/23 09:36:15;;;;;;;25.02;11.30;;;;;;;3.66;100.00;103585.28;5067038;28;20024;-70
2023/01/23 09:38:40;;;;;;;22.33;11.07;;;;;;;3.90;100.00;103575.56;5065682;28;20028;-71
2023/01/23 09:41:15;;;;;;;23.27;11.13;;;;;;;4.03;100.00;103579.63;5067083;28;20028;-71
2023/01/23 09:44:04;;;;;;;32.70;11.85;;;;;;;4.20;100.00;103580.88;5067695;28;20024;-71
2023/01/23 09:46:41;;;;;;;30.88;12.05;;;;;;;4.11;100.00;103575.81;5064672;28;20110;-68
2023/01/23 09:49:24;;;;;;;25.13;11.73;;;;;;;4.17;100.00;103576.47;5049522;28;20028;-68
2023/01/23 09:51:57;;;;;;;29.83;11.35;;;;;;;4.18;100.00;103574.72;5084803;28;20024;-70
2023/01/23 09:54:43;;;;;;;26.60;11.20;;;;;;;3.92;100.00;103576.44;5067159;28;20024;-69
2023/01/23 09:57:19;;;;;;;24.75;12.15;;;;;;;3.89;100.00;103576.50;5060167;28;20024;-71
2023/01/23 10:00:24;;;;;;;26.70;11.77;;;;;;;4.04;100.00;103586.75;5084180;28;20028;-69
2023/01/23 10:02:52;;;;;;;26.35;12.93;;;;;;;3.90;100.00;103583.63;5056263;28;20044;-68
2023/01/23 10:05:22;;;;;;;32.67;13.98;;;;;;;4.11;100.00;103570.44;5085227;28;20036;-73
2023/01/23 10:08:00;;;;;;;27.45;12.90;;;;;;;4.17;100.00;103578.28;5065642;28;20040;-68
2023/01/23 10:10:52;;;;;;;26.42;12.52;;;;;;;4.11;100.00;103566.00;5065540;28;20031;-71
2023/01/23 10:13:28;;;;;;;24.58;12.23;;;;;;;4.18;100.00;103561.31;5060164;28;20055;-71
2023/01/23 10:16:03;;;;;;;33.72;13.40;;;;;;;4.07;100.00;103554.47;5067345;28;20032;-71
2023/01/23 10:19:01;;;;;;;28.67;13.68;;;;;;;4.11;100.00;103549.00;5066131;28;20102;-68
2023/01/23 10:21:35;;;;;;;28.63;13.13;;;;;;;4.20;100.00;103560.31;4998828;28;20053;-69
2023/01/23 10:24:47;;;;;;;30.38;13.05;;;;;;;4.45;100.00;103560.38;5064228;28;20073;-68
2023/01/23 10:27:18;;;;;;;29.42;13.02;;;;;;;4.56;100.00;103547.47;5048034;28;20032;-70
2023/01/23 10:29:48;;;;;;;29.42;12.88;;;;;;;4.37;100.00;103546.34;5067325;28;20520;-71
2023/01/23 10:32:24;;;;;;;28.95;13.02;;;;;;;4.56;100.00;103547.47;5058775;28;20059;-71
2023/01/23 10:34:55;;;;;;;30.50;14.80;;;;;;;4.50;100.00;103552.13;5084094;28;20026;-72
2023/01/23 10:37:44;;;;;;;29.35;14.93;;;;;;;4.33;100.00;103566.13;5065921;28;20027;-68
2023/01/23 10:41:12;;;;;;;27.95;13.43;;;;;;;4.30;100.00;103566.22;5061373;28;20032;-71
2023/01/23 10:43:16;;;;;;;23.98;12.60;;;;;;;4.39;100.00;103565.94;5084350;28;20040;-68
2023/01/23 10:45:43;;;;;;;26.77;13.65;;;;;;;4.45;100.00;103571.09;5066327;28;20107;-71
2023/01/23 10:48:33;;;;;;;27.13;12.68;;;;;;;4.44;100.00;103569.34;5083463;28;20476;-71
2023/01/23 10:50:59;;;;;;;29.73;12.93;;;;;;;4.36;100.00;103566.03;5066427;28;20028;-71
2023/01/23 10:53:25;;;;;;;40.70;13.63;;;;;;;4.58;100.00;103577.78;5084464;28;20090;-70
2023/01/23 10:55:52;;;;;;;31.60;14.75;;;;;;;4.39;100.00;103571.31;5065831;28;20115;-69
2023/01/23 10:58:35;;;;;;;41.17;15.95;;;;;;;4.36;100.00;103576.75;5064941;28;20036;-70
2023/01/23 11:01:02;;;;;;;31.42;16.15;;;;;;;4.34;100.00;103567.88;5065630;28;20016;-71
2023/01/23 11:03:37;;;;;;;30.00;13.25;;;;;;;4.33;100.00;103571.50;5065780;28;20101;-68
2023/01/23 11:06:08;;;;;;;28.60;15.10;;;;;;;4.53;100.00;103577.06;5066608;28;20057;-68
2023/01/23 11:08:39;;;;;;;32.08;15.05;;;;;;;4.61;100.00;103572.31;5067574;28;20380;-70
2023/01/23 11:11:14;;;;;;;29.85;14.30;;;;;;;4.69;100.00;103563.09;5065916;28;20172;-71
2023/01/23 11:13:40;;;;;;;32.10;13.48;;;;;;;4.82;100.00;103575.16;5083551;28;20119;-71
2023/01/23 11:16:05;;;;;;;28.67;12.40;;;;;;;4.95;100.00;103576.47;5068903;28;20055;-69
2023/01/23 11:18:41;;;;;;;27.20;13.70;;;;;;;4.93;100.00;103580.16;5070740;28;20055;-71
2023/01/23 11:21:19;;;;;;;31.13;15.23;;;;;;;4.92;100.00;103576.59;5087217;28;20036;-72
2023/01/23 11:23:44;;;;;;;27.48;14.73;;;;;;;4.93;100.00;103575.66;5083524;28;20063;-71
2023/01/23 11:26:29;;;;;;;30.67;14.68;;;;;;;5.06;100.00;103579.66;5070666;28;20060;-71